Time;durP1;ratioP1;P1;durP2;ratioP2;P2;SDS_P1;SDS_P2;PMS_P1;PMS_P2;Temp;Humidity;BMP_temperature;BMP_pressure;BME280_temperature;BME280_humidity;BME280_pressure;Samples;Min_cycle;Max_cycle;Signal;HPM_P1;HPM_P2
2022/12/19 00:01:36;;;;;;;34.38;18.85;;;;;;;-0.32;100.00;101811.22;5050448;28;20403;-67
2022/12/19 00:04:04;;;;;;;36.50;19.25;;;;;;;-0.29;100.00;101803.16;5050746;28;20067;-67
2022/12/19 00:06:30;;;;;;;36.33;18.13;;;;;;;-0.33;100.00;101783.34;5050685;28;20036;-66
2022/12/19 00:08:59;;;;;;;39.03;21.10;;;;;;;-0.27;100.00;101796.03;5050665;28;20036;-66
2022/12/19 00:11:25;;;;;;;38.80;20.42;;;;;;;-0.22;100.00;101788.69;5050576;28;20357;-67
2022/12/19 00:13:51;;;;;;;37.67;19.05;;;;;;;-0.19;100.00;101778.00;5050583;28;20045;-66
2022/12/19 00:16:19;;;;;;;36.30;18.30;;;;;;;-0.20;100.00;101757.16;5050499;28;20025;-67
2022/12/19 00:18:46;;;;;;;40.42;21.58;;;;;;;-0.14;100.00;101764.59;5050148;28;20564;-66
2022/12/19 00:21:13;;;;;;;37.92;18.48;;;;;;;-0.12;100.00;101757.47;5050395;28;20021;-66
2022/12/19 00:23:39;;;;;;;40.40;20.20;;;;;;;-0.11;100.00;101767.00;5050479;28;20044;-66
2022/12/19 00:26:25;;;;;;;42.67;23.30;;;;;;;-0.08;100.00;101754.53;5050385;28;20048;-66
2022/12/19 00:28:53;;;;;;;41.50;20.27;;;;;;;-0.04;100.00;101740.25;5049794;28;20025;-67
2022/12/19 00:31:20;;;;;;;34.65;19.00;;;;;;;0.02;100.00;101732.91;5050082;28;20041;-66
2022/12/19 00:33:46;;;;;;;38.75;20.17;;;;;;;0.04;100.00;101738.88;5050170;28;20468;-67
2022/12/19 00:36:16;;;;;;;38.25;18.85;;;;;;;0.08;100.00;101735.09;5028775;28;20057;-67
2022/12/19 00:38:41;;;;;;;38.90;18.95;;;;;;;0.09;100.00;101723.66;5048753;28;20075;-67
2022/12/19 00:41:13;;;;;;;39.45;20.73;;;;;;;0.12;100.00;101724.28;5050059;28;20441;-67
2022/12/19 00:43:38;;;;;;;;;;;;;;;0.13;100.00;101714.63;5050445;28;20025;-67
2022/12/19 00:46:06;;;;;;;34.58;20.63;;;;;;;0.16;100.00;101709.19;5050083;28;19912;-67
2022/12/19 00:48:32;;;;;;;38.20;19.63;;;;;;;0.20;100.00;101695.72;5050030;28;20025;-67
2022/12/19 00:51:07;;;;;;;33.88;17.33;;;;;;;0.26;100.00;101709.34;5049895;28;20028;-67
2022/12/19 00:53:33;;;;;;;35.80;18.05;;;;;;;0.31;100.00;101707.25;5049696;28;20036;-67
2022/12/19 00:56:07;;;;;;;30.70;15.55;;;;;;;0.36;100.00;101692.84;5049308;28;20025;-67
2022/12/19 00:58:33;;;;;;;36.08;19.42;;;;;;;0.41;100.00;101690.75;5049292;28;20028;-66
2022/12/19 01:01:08;;;;;;;34.20;20.05;;;;;;;0.47;100.00;101693.88;5049325;28;20062;-67
2022/12/19 01:03:33;;;;;;;33.85;16.50;;;;;;;0.52;100.00;101687.34;5049499;28;20065;-66
2022/12/19 01:05:59;;;;;;;35.38;17.95;;;;;;;0.56;100.00;101693.22;5049209;28;20059;-67
2022/12/19 01:08:24;;;;;;;38.35;18.98;;;;;;;0.59;100.00;101682.50;5049321;28;20083;-66
2022/12/19 01:10:50;;;;;;;38.10;20.33;;;;;;;0.62;100.00;101674.41;5049158;28;20033;-67
2022/12/19 01:13:18;;;;;;;37.38;18.40;;;;;;;0.65;100.00;101674.16;5048930;28;20032;-67
2022/12/19 01:15:44;;;;;;;34.75;17.77;;;;;;;0.69;100.00;101683.50;5048425;28;20028;-67
2022/12/19 01:18:09;;;;;;;40.33;20.95;;;;;;;0.68;100.00;101687.06;5048636;28;20040;-67
2022/12/19 01:20:40;;;;;;;35.17;20.77;;;;;;;0.72;100.00;101683.28;5048642;28;20047;-66
2022/12/19 01:23:09;;;;;;;31.98;17.58;;;;;;;0.73;100.00;101671.00;5048729;28;20029;-67
2022/12/19 01:25:36;;;;;;;31.67;16.55;;;;;;;0.75;100.00;101679.59;5048369;28;20025;-67
2022/12/19 01:28:02;;;;;;;36.78;19.00;;;;;;;0.78;100.00;101661.81;5048236;28;20037;-67
2022/12/19 01:30:28;;;;;;;33.08;17.88;;;;;;;0.80;100.00;101662.53;5048430;28;20415;-73
2022/12/19 01:32:54;;;;;;;38.92;19.80;;;;;;;0.83;100.00;101661.47;5052584;28;20029;-74
2022/12/19 01:35:20;;;;;;;36.10;17.83;;;;;;;0.88;100.00;101643.59;5047945;28;20179;-73
2022/12/19 01:37:46;;;;;;;34.72;18.02;;;;;;;0.87;100.00;101650.66;5052808;28;20124;-73
2022/12/19 01:40:12;;;;;;;38.35;20.27;;;;;;;0.87;100.00;101650.66;5034666;28;20024;-73
2022/12/19 01:42:37;;;;;;;33.03;18.50;;;;;;;0.90;100.00;101654.00;5053437;28;20368;-73
2022/12/19 01:45:09;;;;;;;35.22;16.55;;;;;;;0.91;100.00;101658.28;5053317;28;20032;-74
2022/12/19 01:47:46;;;;;;;35.00;18.00;;;;;;;0.91;100.00;101651.25;5045165;28;20037;-73
2022/12/19 01:50:19;;;;;;;34.75;16.30;;;;;;;0.84;100.00;101629.03;5052460;28;20021;-73
2022/12/19 01:52:46;;;;;;;31.17;17.63;;;;;;;0.96;100.00;101650.91;5053225;28;20025;-73
2022/12/19 01:55:13;;;;;;;34.58;16.13;;;;;;;0.98;100.00;101641.97;5053300;28;20391;-73
2022/12/19 01:57:38;;;;;;;35.53;18.50;;;;;;;0.98;100.00;101647.22;5053232;28;20482;-73
2022/12/19 02:00:08;;;;;;;37.30;17.80;;;;;;;1.01;100.00;101648.78;5053165;28;20052;-73
2022/12/19 02:02:42;;;;;;;33.03;20.08;;;;;;;1.02;100.00;101640.78;5053158;28;20056;-74
2022/12/19 02:05:08;;;;;;;35.50;16.52;;;;;;;1.02;100.00;101643.44;5053035;28;20395;-73
2022/12/19 02:07:35;;;;;;;31.45;16.60;;;;;;;1.03;100.00;101645.09;5052944;28;20475;-73
2022/12/19 02:10:02;;;;;;;34.75;16.05;;;;;;;1.01;100.00;101633.84;5052879;28;20174;-73
2022/12/19 02:12:32;;;;;;;34.40;17.10;;;;;;;0.99;100.00;101624.41;5052947;28;20078;-73
2022/12/19 02:15:00;;;;;;;33.67;18.70;;;;;;;1.02;100.00;101625.03;5052099;28;20025;-73
2022/12/19 02:17:53;;;;;;;32.50;17.35;;;;;;;1.06;100.00;101623.84;5051877;28;20032;-73
2022/12/19 02:20:40;;;;;;;29.83;16.17;;;;;;;1.08;100.00;101623.75;5052014;28;20020;-73
2022/12/19 02:23:11;;;;;;;38.10;18.23;;;;;;;1.08;100.00;101618.47;5051919;28;20049;-73
2022/12/19 02:26:18;;;;;;;34.30;16.15;;;;;;;1.08;100.00;101613.22;5052409;28;20025;-73
2022/12/19 02:29:08;;;;;;;31.92;15.18;;;;;;;1.12;100.00;101619.91;4979942;28;20498;-73
2022/12/19 02:31:42;;;;;;;33.05;15.82;;;;;;;1.14;100.00;101612.75;5051937;28;20025;-73
2022/12/19 02:34:26;;;;;;;31.02;16.50;;;;;;;1.19;100.00;101596.66;5051972;28;20028;-73
2022/12/19 02:37:02;;;;;;;29.73;15.35;;;;;;;1.17;100.00;101596.75;5052344;28;20045;-73
2022/12/19 02:39:34;;;;;;;32.90;16.20;;;;;;;1.24;100.00;101600.59;5052313;28;20024;-73
2022/12/19 02:42:00;;;;;;;;;;;;;;;1.28;100.00;101601.19;5052025;28;20053;-73
2022/12/19 02:44:34;;;;;;;35.88;17.70;;;;;;;1.31;100.00;101593.91;5051710;28;19915;-73
2022/12/19 02:47:02;;;;;;;34.22;18.17;;;;;;;1.32;100.00;101594.75;5051765;28;20441;-73
2022/12/19 02:49:35;;;;;;;34.30;17.08;;;;;;;1.36;100.00;101592.72;5051760;28;20033;-67
2022/12/19 02:52:30;;;;;;;32.25;16.40;;;;;;;1.39;100.00;101577.56;5051779;28;20033;-67
2022/12/19 02:55:00;;;;;;;33.75;17.67;;;;;;;1.37;100.00;101557.63;5038328;28;20483;-67
2022/12/19 02:57:36;;;;;;;33.00;17.30;;;;;;;1.45;100.00;101563.94;5051676;28;20029;-67
2022/12/19 03:00:06;;;;;;;31.17;16.85;;;;;;;1.51;100.00;101557.34;5051576;28;20020;-67
2022/12/19 03:02:45;;;;;;;31.08;14.68;;;;;;;1.55;100.00;101571.94;5051419;28;20032;-67
2022/12/19 03:05:25;;;;;;;27.25;14.77;;;;;;;1.55;100.00;101566.69;5046133;28;20029;-67
2022/12/19 03:08:05;;;;;;;32.97;14.40;;;;;;;1.58;100.00;101555.94;5051900;28;20039;-67
2022/12/19 03:10:44;;;;;;;30.65;14.98;;;;;;;1.60;100.00;101555.78;5043700;28;20029;-67
2022/12/19 03:13:16;;;;;;;30.48;16.27;;;;;;;1.60;100.00;101551.38;5051538;28;20543;-67
2022/12/19 03:15:41;;;;;;;;;;;;;;;1.63;100.00;101552.94;5051152;28;20036;-67
2022/12/19 03:18:08;;;;;;;30.58;15.98;;;;;;;1.67;100.00;101564.88;5050814;28;19920;-67
2022/12/19 03:20:48;;;;;;;31.35;16.80;;;;;;;1.67;100.00;101562.25;5050894;28;20525;-67
2022/12/19 03:23:14;;;;;;;34.33;19.05;;;;;;;1.59;100.00;101541.81;5050547;28;20071;-67
2022/12/19 03:25:43;;;;;;;29.35;14.98;;;;;;;1.67;100.00;101556.97;5050757;28;20544;-67
2022/12/19 03:28:14;;;;;;;29.75;15.30;;;;;;;1.72;100.00;101560.91;5050764;28;20382;-67
2022/12/19 03:30:43;;;;;;;;;;;;;;;1.74;100.00;101560.81;5050975;28;20025;-67
2022/12/19 03:33:11;;;;;;;30.42;17.08;;;;;;;1.74;100.00;101537.97;5050687;28;19919;-67
2022/12/19 03:35:38;;;;;;;33.17;16.15;;;;;;;1.82;100.00;101542.63;5050273;28;20032;-67
2022/12/19 03:38:05;;;;;;;31.42;15.63;;;;;;;1.80;100.00;101530.56;5050304;28;20419;-67
2022/12/19 03:40:33;;;;;;;32.78;15.57;;;;;;;1.90;100.00;101544.66;5050420;28;20096;-67
2022/12/19 03:43:10;;;;;;;27.05;14.15;;;;;;;1.93;100.00;101539.97;5050324;28;20033;-68
2022/12/19 03:45:38;;;;;;;35.72;18.30;;;;;;;1.97;100.00;101527.41;5051327;28;20028;-67
2022/12/19 03:48:08;;;;;;;30.08;15.45;;;;;;;1.97;100.00;101530.88;5051122;28;20403;-67
2022/12/19 03:50:46;;;;;;;28.85;14.50;;;;;;;2.01;100.00;101535.88;5050959;28;20159;-67
2022/12/19 03:53:30;;;;;;;28.77;13.90;;;;;;;2.02;100.00;101522.63;5044650;28;20052;-67
2022/12/19 03:56:22;;;;;;;31.52;14.00;;;;;;;2.08;100.00;101527.38;5050942;28;20357;-67
2022/12/19 03:58:57;;;;;;;31.10;16.52;;;;;;;2.08;100.00;101534.44;5050156;28;20403;-67
2022/12/19 04:01:25;;;;;;;33.92;17.15;;;;;;;2.05;100.00;101517.09;5050807;28;20105;-67
2022/12/19 04:03:51;;;;;;;29.55;14.88;;;;;;;2.11;100.00;101529.75;5032747;28;20033;-67
2022/12/19 04:06:16;;;;;;;28.52;13.63;;;;;;;2.11;100.00;101527.13;5050796;28;20033;-67
2022/12/19 04:08:42;;;;;;;28.73;14.57;;;;;;;2.09;100.00;101515.03;5050676;28;20116;-67
2022/12/19 04:11:17;;;;;;;31.00;15.32;;;;;;;2.15;100.00;101525.09;5050223;28;20036;-67
2022/12/19 04:13:52;;;;;;;28.88;14.65;;;;;;;2.17;100.00;101521.38;5050236;28;20034;-67
2022/12/19 04:16:32;;;;;;;29.98;15.63;;;;;;;2.22;100.00;101522.78;5049935;28;20021;-67
2022/12/19 04:19:08;;;;;;;28.92;13.77;;;;;;;2.20;100.00;101515.00;5050318;28;20025;-67
2022/12/19 04:21:39;;;;;;;31.17;15.15;;;;;;;2.24;100.00;101510.34;5050044;28;20071;-67
2022/12/19 04:24:13;;;;;;;30.90;13.77;;;;;;;2.29;100.00;101513.44;5050037;28;20111;-67
2022/12/19 04:26:40;;;;;;;27.00;14.50;;;;;;;2.35;100.00;101510.28;5049925;28;20033;-67
2022/12/19 04:29:07;;;;;;;30.52;13.68;;;;;;;2.38;100.00;101510.03;5049844;28;20430;-66
2022/12/19 04:31:34;;;;;;;28.67;14.13;;;;;;;2.40;100.00;101501.03;5049794;28;20106;-67
2022/12/19 04:34:00;;;;;;;28.63;14.68;;;;;;;2.46;100.00;101504.94;5048525;28;20094;-67
2022/12/19 04:36:26;;;;;;;27.08;11.95;;;;;;;2.47;100.00;101501.38;5057544;28;20975;-67
2022/12/19 04:38:52;;;;;;;25.25;13.25;;;;;;;2.56;100.00;101494.50;5040363;28;20059;-67
2022/12/19 04:41:17;;;;;;;25.17;11.45;;;;;;;2.58;100.00;101485.50;5065138;28;20020;-67
2022/12/19 04:43:43;;;;;;;26.05;12.07;;;;;;;2.62;100.00;101486.09;5069219;28;20899;-67
2022/12/19 04:46:08;;;;;;;26.92;12.35;;;;;;;2.70;100.00;101486.28;5069531;28;20047;-66
2022/12/19 04:48:35;;;;;;;25.42;12.57;;;;;;;2.77;100.00;101497.94;5051648;28;20491;-67
2022/12/19 04:51:00;;;;;;;25.33;11.57;;;;;;;2.79;100.00;101477.59;5069391;28;20039;-67
2022/12/19 04:53:26;;;;;;;24.92;10.40;;;;;;;2.91;100.00;101488.91;5069344;28;20036;-67
2022/12/19 04:55:59;;;;;;;27.95;12.80;;;;;;;2.95;100.00;101500.81;5069623;28;20447;-67
2022/12/19 04:58:26;;;;;;;32.05;13.13;;;;;;;3.02;100.00;101501.16;5069456;28;20131;-67
2022/12/19 05:00:51;;;;;;;29.42;11.02;;;;;;;3.06;100.00;101492.81;5069363;28;20033;-67
2022/12/19 05:03:16;;;;;;;20.92;10.05;;;;;;;3.16;100.00;101492.88;5069340;28;20106;-67
2022/12/19 05:05:42;;;;;;;23.67;12.02;;;;;;;3.16;100.00;101473.59;5069099;28;20032;-67
2022/12/19 05:08:07;;;;;;;20.55;9.10;;;;;;;3.32;100.00;101495.03;5069129;28;20107;-67
2022/12/19 05:10:32;;;;;;;25.17;9.32;;;;;;;3.38;100.00;101489.22;5069082;28;20029;-67
2022/12/19 05:12:58;;;;;;;20.27;8.85;;;;;;;3.48;100.00;101490.09;5069473;28;20032;-67
2022/12/19 05:15:23;;;;;;;21.80;10.90;;;;;;;3.60;100.00;101488.16;5068464;28;20139;-67
2022/12/19 05:17:49;;;;;;;19.67;7.97;;;;;;;3.65;100.00;101483.31;5068435;28;20074;-67
2022/12/19 05:20:14;;;;;;;19.90;8.45;;;;;;;3.76;100.00;101487.66;5068381;28;20060;-67
2022/12/19 05:22:39;;;;;;;17.85;8.25;;;;;;;3.88;100.00;101488.38;5060379;28;20024;-67
2022/12/19 05:25:05;;;;;;;17.55;8.27;;;;;;;3.93;100.00;101484.34;5068452;28;20021;-67
2022/12/19 05:27:31;;;;;;;20.88;8.40;;;;;;;3.94;100.00;101474.63;5058530;28;20041;-67
2022/12/19 05:29:56;;;;;;;19.63;8.27;;;;;;;4.05;100.00;101481.56;5048606;28;20043;-67
2022/12/19 05:32:21;;;;;;;16.30;7.50;;;;;;;4.09;100.00;101480.31;5048938;28;20506;-67
2022/12/19 05:34:46;;;;;;;17.55;8.43;;;;;;;4.10;100.00;101464.34;5048716;28;20863;-67
2022/12/19 05:37:12;;;;;;;18.45;7.57;;;;;;;4.17;100.00;101493.66;5049032;28;21003;-67
2022/12/19 05:39:37;;;;;;;18.88;7.93;;;;;;;4.22;100.00;101482.66;5048890;28;20491;-67
2022/12/19 05:42:03;;;;;;;18.90;8.88;;;;;;;4.25;100.00;101475.31;5048670;28;20492;-67
2022/12/19 05:44:28;;;;;;;17.10;6.80;;;;;;;4.25;100.00;101450.72;5049163;28;20035;-67
2022/12/19 05:46:53;;;;;;;17.23;7.70;;;;;;;4.38;100.00;101470.56;5049228;28;20067;-67
2022/12/19 05:49:19;;;;;;;15.38;7.40;;;;;;;4.44;100.00;101473.63;5049225;28;20036;-67
2022/12/19 05:51:44;;;;;;;19.80;8.52;;;;;;;4.47;100.00;101460.97;5049267;28;20025;-67
2022/12/19 05:54:09;;;;;;;17.45;7.53;;;;;;;4.58;100.00;101458.19;5014968;28;20063;-67
2022/12/19 05:56:35;;;;;;;15.98;7.50;;;;;;;4.56;100.00;101461.94;5049262;28;20029;-67
2022/12/19 05:59:00;;;;;;;20.55;8.18;;;;;;;4.61;100.00;101457.91;5031358;28;20033;-66
2022/12/19 06:01:26;;;;;;;16.85;7.82;;;;;;;4.67;100.00;101460.94;5049201;28;20143;-67
2022/12/19 06:03:53;;;;;;;19.20;8.30;;;;;;;4.71;100.00;101464.94;5049102;28;20120;-67
2022/12/19 06:06:21;;;;;;;18.42;8.27;;;;;;;4.63;100.00;101444.53;5049185;28;20478;-67
2022/12/19 06:08:46;;;;;;;15.80;7.30;;;;;;;4.75;100.00;101464.53;5049252;28;20036;-67
2022/12/19 06:11:13;;;;;;;17.05;8.05;;;;;;;4.84;100.00;101471.56;5049011;28;20029;-67
2022/12/19 06:13:39;;;;;;;16.63;7.20;;;;;;;4.88;100.00;101460.75;5049137;28;20908;-67
2022/12/19 06:16:08;;;;;;;14.70;6.68;;;;;;;4.86;100.00;101462.69;5049129;28;20040;-67
2022/12/19 06:18:34;;;;;;;14.13;7.28;;;;;;;4.95;100.00;101465.31;5052245;28;20502;-67
2022/12/19 06:21:07;;;;;;;14.18;6.82;;;;;;;4.98;100.00;101466.84;5052407;28;20025;-67
2022/12/19 06:23:34;;;;;;;14.75;6.38;;;;;;;5.04;100.00;101468.88;5034449;28;20166;-67
2022/12/19 06:26:01;;;;;;;14.60;6.20;;;;;;;5.07;100.00;101458.00;5052618;28;20025;-67
2022/12/19 06:28:28;;;;;;;15.20;6.53;;;;;;;5.11;100.00;101463.84;5052605;28;20025;-67
2022/12/19 06:30:59;;;;;;;12.90;5.25;;;;;;;5.08;100.00;101457.03;5052464;28;20060;-67
2022/12/19 06:33:24;;;;;;;13.60;6.47;;;;;;;5.14;100.00;101474.97;5052550;28;20051;-67
2022/12/19 06:36:07;;;;;;;14.98;6.20;;;;;;;5.19;100.00;101471.91;5052387;28;20037;-67
2022/12/19 06:38:33;;;;;;;17.33;6.05;;;;;;;5.20;100.00;101474.38;5069320;28;20467;-67
2022/12/19 06:43:42;;;;;;;17.55;7.32;;;;;;;5.23;100.00;101484.66;5052758;28;20162;-67
2022/12/19 06:46:08;;;;;;;17.27;7.18;;;;;;;5.28;100.00;101474.47;5052678;28;20281;-67
2022/12/19 06:48:34;;;;;;;16.63;7.07;;;;;;;5.31;100.00;101483.09;5034948;28;20032;-67
2022/12/19 06:50:59;;;;;;;12.30;6.25;;;;;;;5.35;100.00;101477.38;5052669;28;20085;-68
2022/12/19 06:53:25;;;;;;;12.15;5.70;;;;;;;5.32;100.00;101476.81;5052425;28;20479;-67
2022/12/19 06:55:54;;;;;;;13.32;6.10;;;;;;;5.35;100.00;101492.41;5052522;28;20033;-67
2022/12/19 06:58:20;;;;;;;12.20;6.00;;;;;;;5.38;100.00;101484.19;5071418;28;20031;-67
2022/12/19 07:00:45;;;;;;;14.02;7.03;;;;;;;5.42;100.00;101467.88;5071459;28;20052;-67
2022/12/19 07:03:14;;;;;;;12.27;5.60;;;;;;;5.38;100.00;101463.03;5071517;28;20119;-67
2022/12/19 07:05:40;;;;;;;14.70;6.10;;;;;;;5.44;100.00;101483.59;5071487;28;20028;-67
2022/12/19 07:08:08;;;;;;;14.52;6.43;;;;;;;5.51;100.00;101475.91;5071323;28;20055;-67
2022/12/19 07:10:33;;;;;;;14.68;6.60;;;;;;;5.49;100.00;101473.41;5071153;28;20028;-67
2022/12/19 07:12:58;;;;;;;15.70;7.50;;;;;;;5.52;100.00;101481.03;5071213;28;20028;-68
2022/12/19 07:15:24;;;;;;;14.32;6.40;;;;;;;5.58;100.00;101474.31;5070279;28;20028;-67
2022/12/19 07:17:50;;;;;;;11.63;5.57;;;;;;;5.59;100.00;101471.53;5070212;28;20033;-68
2022/12/19 07:20:16;;;;;;;13.63;5.85;;;;;;;5.65;100.00;101473.56;5070311;28;20471;-67
2022/12/19 07:22:43;;;;;;;17.00;6.40;;;;;;;5.62;100.00;101476.53;5070133;28;20051;-67
2022/12/19 07:25:09;;;;;;;14.27;6.60;;;;;;;5.64;100.00;101471.91;5070187;28;20439;-68
2022/12/19 07:27:35;;;;;;;12.25;5.97;;;;;;;5.70;100.00;101483.72;5070147;28;20028;-67
2022/12/19 07:30:01;;;;;;;13.73;5.93;;;;;;;5.73;100.00;101480.75;5069019;28;20025;-67
2022/12/19 07:32:26;;;;;;;14.45;5.82;;;;;;;5.72;100.00;101482.59;5070199;28;20089;-67
2022/12/19 07:34:51;;;;;;;12.82;5.57;;;;;;;5.74;100.00;101479.81;5050592;28;20033;-67
2022/12/19 07:37:17;;;;;;;12.05;6.13;;;;;;;5.78;100.00;101486.44;5050516;28;20115;-67
2022/12/19 07:39:42;;;;;;;14.50;6.15;;;;;;;5.78;100.00;101482.97;5050508;28;20036;-67
2022/12/19 07:42:07;;;;;;;14.48;5.90;;;;;;;5.79;100.00;101487.28;5050498;28;20087;-67
2022/12/19 07:44:33;;;;;;;13.68;6.72;;;;;;;5.65;100.00;101464.81;5050908;28;20052;-68
2022/12/19 07:46:58;;;;;;;10.73;6.20;;;;;;;5.81;100.00;101493.25;5051160;28;20086;-68
2022/12/19 07:49:23;;;;;;;13.68;6.20;;;;;;;5.79;100.00;101488.13;5033274;28;20057;-67
2022/12/19 07:51:49;;;;;;;11.52;6.72;;;;;;;5.79;100.00;101492.56;5051051;28;20079;-68
2022/12/19 07:54:15;;;;;;;12.43;7.05;;;;;;;5.79;100.00;101493.41;5050791;28;20053;-67
2022/12/19 07:56:41;;;;;;;12.05;5.43;;;;;;;5.75;100.00;101492.03;5050838;28;20060;-68
2022/12/19 07:59:06;;;;;;;13.80;7.57;;;;;;;5.75;100.00;101492.03;5050892;28;20037;-68
2022/12/19 08:01:31;;;;;;;10.77;6.13;;;;;;;5.84;100.00;101503.53;5032795;28;20075;-68
2022/12/19 08:03:57;;;;;;;14.73;7.15;;;;;;;5.85;100.00;101507.88;5050763;28;20056;-73
2022/12/19 08:06:23;;;;;;;13.13;5.68;;;;;;;5.84;100.00;101508.84;5050498;28;20025;-72
2022/12/19 08:08:49;;;;;;;14.80;6.10;;;;;;;5.83;100.00;101509.81;5045717;28;20109;-73
2022/12/19 08:11:18;;;;;;;12.75;5.88;;;;;;;5.84;100.00;101514.13;5050332;28;20139;-73
2022/12/19 08:13:44;;;;;;;17.33;8.40;;;;;;;5.84;100.00;101512.34;5050098;28;20036;-73
2022/12/19 08:16:10;;;;;;;12.70;5.28;;;;;;;5.85;100.00;101513.16;5049382;28;20052;-73
2022/12/19 08:18:36;;;;;;;12.88;6.22;;;;;;;5.87;100.00;101506.75;5049481;28;20472;-73
2022/12/19 08:21:01;;;;;;;12.43;6.10;;;;;;;5.89;100.00;101515.38;5049585;28;20033;-73
2022/12/19 08:23:27;;;;;;;16.77;6.22;;;;;;;5.88;100.00;101505.75;5049817;28;20541;-73
2022/12/19 08:26:04;;;;;;;12.20;5.70;;;;;;;5.92;100.00;101517.72;5050281;28;20031;-73
2022/12/19 08:28:31;;;;;;;12.90;6.45;;;;;;;5.94;100.00;101514.94;5050172;28;20541;-73
2022/12/19 08:30:56;;;;;;;13.85;6.25;;;;;;;5.98;100.00;101515.47;5049739;28;20024;-73
2022/12/19 08:33:22;;;;;;;14.65;7.25;;;;;;;5.95;100.00;101502.53;5049240;28;20483;-73
2022/12/19 08:35:48;;;;;;;12.05;5.05;;;;;;;5.99;100.00;101514.50;5048914;28;20033;-73
2022/12/19 08:38:13;;;;;;;9.85;5.10;;;;;;;6.00;100.00;101505.56;5062321;28;20037;-74
2022/12/19 08:40:38;;;;;;;8.80;4.97;;;;;;;6.08;100.00;101501.19;5018281;28;20028;-77
2022/12/19 08:43:04;;;;;;;14.07;5.75;;;;;;;6.12;100.00;101505.19;5047266;28;20061;-74
2022/12/19 08:45:29;;;;;;;11.73;5.95;;;;;;;6.14;100.00;101511.16;5034535;28;20067;-77
2022/12/19 08:47:54;;;;;;;13.50;6.30;;;;;;;6.15;100.00;101514.63;5048847;28;20029;-75
2022/12/19 08:50:20;;;;;;;13.00;6.28;;;;;;;6.15;100.00;101509.34;5044464;28;20075;-76
2022/12/19 08:52:45;;;;;;;10.82;5.05;;;;;;;6.23;100.00;101522.66;5044985;28;20025;-77
2022/12/19 08:55:10;;;;;;;12.40;5.03;;;;;;;6.23;100.00;101522.66;5046948;28;20470;-75
2022/12/19 08:57:36;;;;;;;13.43;5.68;;;;;;;6.27;100.00;101523.22;5049015;28;20376;-73
2022/12/19 09:00:03;;;;;;;13.65;5.93;;;;;;;6.30;100.00;101518.44;5053277;28;20025;-74
2022/12/19 09:02:29;;;;;;;13.80;5.72;;;;;;;6.35;100.00;101525.94;5045801;28;20017;-74
2022/12/19 09:04:54;;;;;;;11.75;5.35;;;;;;;6.41;100.00;101509.41;5050143;28;20028;-76
2022/12/19 09:07:19;;;;;;;14.25;6.10;;;;;;;6.39;100.00;101511.38;5050148;28;20039;-75
2022/12/19 09:09:45;;;;;;;10.98;5.25;;;;;;;6.48;100.00;101526.38;5037667;28;20113;-75
2022/12/19 09:12:12;;;;;;;13.07;5.32;;;;;;;6.48;100.00;101509.63;5046613;28;20059;-73
2022/12/19 09:14:38;;;;;;;10.02;4.93;;;;;;;6.54;100.00;101522.25;5057420;28;20070;-76
2022/12/19 09:17:03;;;;;;;10.68;5.53;;;;;;;6.53;100.00;101516.13;5038258;28;20040;-76
2022/12/19 09:19:28;;;;;;;10.05;4.68;;;;;;;6.57;100.00;101524.59;5056886;28;20035;-76
2022/12/19 09:21:54;;;;;;;10.18;5.00;;;;;;;6.59;100.00;101526.13;5056409;28;20468;-76
2022/12/19 09:24:19;;;;;;;10.02;5.07;;;;;;;6.56;100.00;101523.78;5068481;28;20113;-76
2022/12/19 09:26:45;;;;;;;10.95;5.47;;;;;;;6.56;100.00;101523.78;5052673;28;20041;-76
2022/12/19 09:29:10;;;;;;;12.25;5.00;;;;;;;6.65;100.00;101532.63;5053853;28;20028;-76
2022/12/19 09:31:36;;;;;;;10.85;4.82;;;;;;;6.73;100.00;101543.31;5063525;28;20084;-76
2022/12/19 09:34:01;;;;;;;9.57;5.22;;;;;;;6.76;100.00;101537.69;5048745;28;20071;-77
2022/12/19 09:36:27;;;;;;;10.95;5.50;;;;;;;6.80;100.00;101530.25;5049661;28;20053;-77
2022/12/19 09:38:54;;;;;;;10.20;5.40;;;;;;;6.78;100.00;101540.16;5057909;28;20024;-74
2022/12/19 09:41:31;;;;;;;14.25;4.72;;;;;;;6.87;100.00;101539.25;5064086;28;20036;-75
2022/12/19 09:44:24;;;;;;;8.25;4.90;;;;;;;6.90;100.00;101533.63;5052534;28;20505;-76
2022/12/19 09:46:56;;;;;;;11.40;5.72;;;;;;;6.93;100.00;101538.63;5063446;28;20039;-74
2022/12/19 09:49:24;;;;;;;12.30;5.22;;;;;;;6.93;100.00;101527.19;5051924;28;20033;-76
2022/12/19 09:52:09;;;;;;;11.90;5.97;;;;;;;6.99;100.00;101531.84;5058334;28;20036;-76
2022/12/19 09:54:46;;;;;;;10.35;4.68;;;;;;;7.01;100.00;101533.38;5040084;28;20076;-76
2022/12/19 09:57:28;;;;;;;9.90;5.55;;;;;;;7.05;100.00;101536.56;5060383;28;20029;-76
2022/12/19 09:59:58;;;;;;;9.48;5.45;;;;;;;7.08;100.00;101528.28;5062686;28;20496;-76
2022/12/19 10:02:46;;;;;;;11.55;4.88;;;;;;;7.15;100.00;101533.78;5063243;28;20047;-76
2022/12/19 10:05:14;;;;;;;11.13;4.57;;;;;;;7.18;100.00;101529.00;5062816;28;20024;-75
2022/12/19 10:07:39;;;;;;;10.82;5.55;;;;;;;7.21;100.00;101541.94;5059413;28;20036;-76
2022/12/19 10:10:05;;;;;;;12.80;6.00;;;;;;;7.27;100.00;101547.63;5047443;28;20123;-76
2022/12/19 10:13:03;;;;;;;7.78;4.68;;;;;;;7.27;100.00;101544.97;5062357;28;20493;-76
2022/12/19 10:15:40;;;;;;;11.40;5.43;;;;;;;7.35;100.00;101542.34;5061882;28;20032;-76
2022/12/19 10:18:20;;;;;;;10.40;5.00;;;;;;;7.40;100.00;101543.53;5064249;28;20571;-77
2022/12/19 10:21:01;;;;;;;11.10;5.60;;;;;;;7.42;100.00;101538.91;5058947;28;20021;-76
2022/12/19 10:23:45;;;;;;;9.68;4.97;;;;;;;7.42;100.00;101527.47;5057858;28;20040;-76
2022/12/19 10:26:19;;;;;;;9.82;5.40;;;;;;;7.41;100.00;101517.81;5061930;28;20029;-76
2022/12/19 10:29:06;;;;;;;9.38;4.95;;;;;;;7.50;100.00;101537.28;5060334;28;20467;-76
2022/12/19 10:31:35;;;;;;;9.13;4.43;;;;;;;7.51;100.00;101539.75;5061078;28;20074;-76
2022/12/19 10:34:19;;;;;;;10.23;4.32;;;;;;;7.53;100.00;101543.09;5049549;28;20107;-76
2022/12/19 10:36:53;;;;;;;7.93;4.22;;;;;;;7.53;100.00;101536.97;5054607;28;20914;-76
2022/12/19 10:39:28;;;;;;;10.32;4.70;;;;;;;7.51;100.00;101537.09;5049515;28;20030;-76
2022/12/19 10:42:06;;;;;;;9.75;4.75;;;;;;;7.51;100.00;101549.56;5047015;28;20110;-77
2022/12/19 10:44:37;;;;;;;8.55;4.80;;;;;;;7.50;100.00;101553.22;5034399;28;20971;-76
2022/12/19 10:47:02;;;;;;;9.80;5.03;;;;;;;7.51;100.00;101550.38;5049713;28;20029;-76
2022/12/19 10:49:28;;;;;;;9.60;4.35;;;;;;;7.48;100.00;101550.69;5051425;28;20036;-76
2022/12/19 10:52:06;;;;;;;9.10;5.03;;;;;;;7.45;100.00;101527.97;5046916;28;20036;-77
2022/12/19 10:54:35;;;;;;;9.60;4.82;;;;;;;7.43;100.00;101542.38;5050798;28;20029;-69
2022/12/19 10:57:33;;;;;;;8.75;5.05;;;;;;;7.43;100.00;101543.22;5052019;28;20052;-69
2022/12/19 11:00:15;;;;;;;10.57;4.40;;;;;;;7.43;100.00;101537.91;5007321;28;20045;-69
2022/12/19 11:02:42;;;;;;;9.52;4.75;;;;;;;7.42;100.00;101538.91;5051881;28;20032;-69
2022/12/19 11:05:40;;;;;;;10.07;4.53;;;;;;;7.40;100.00;101542.69;5052008;28;20109;-69
2022/12/19 11:08:06;;;;;;;10.40;4.65;;;;;;;7.38;100.00;101536.72;5051836;28;20031;-69
2022/12/19 11:10:40;;;;;;;8.80;4.95;;;;;;;7.40;100.00;101532.09;5051810;28;20437;-69
2022/12/19 11:13:46;;;;;;;10.95;5.13;;;;;;;7.36;100.00;101522.78;5051841;28;20021;-69
2022/12/19 11:16:19;;;;;;;9.68;4.93;;;;;;;7.42;100.00;101525.63;5046232;28;20024;-69
2022/12/19 11:18:46;;;;;;;13.07;4.95;;;;;;;7.43;100.00;101507.88;5050871;28;20083;-69
2022/12/19 11:21:11;;;;;;;9.90;5.50;;;;;;;7.43;100.00;101526.47;5044960;28;20020;-68
2022/12/19 11:23:52;;;;;;;11.77;4.93;;;;;;;7.40;100.00;101500.25;5041956;28;20040;-68
2022/12/19 11:26:48;;;;;;;13.30;5.28;;;;;;;7.45;100.00;101503.25;5042825;28;20029;-69
2022/12/19 11:29:20;;;;;;;11.02;4.70;;;;;;;7.41;100.00;101497.44;5037718;28;20040;-69